Time;durP1;ratioP1;P1;durP2;ratioP2;P2;SDS_P1;SDS_P2;PMS_P1;PMS_P2;Temp;Humidity;BMP_temperature;BMP_pressure;BME280_temperature;BME280_humidity;BME280_pressure;Samples;Min_cycle;Max_cycle;Signal;HPM_P1;HPM_P2
2024/04/16 00:01:37;;;;;;;2.78;1.50;;;;;;;5.46;100.00;96602.56;6741055;21;20326;-78
2024/04/16 00:04:03;;;;;;;2.38;1.60;;;;;;;5.58;100.00;96621.66;6740439;21;20338;-78
2024/04/16 00:06:30;;;;;;;3.42;1.70;;;;;;;5.50;100.00;96605.50;6742760;21;20326;-78
2024/04/16 00:08:56;;;;;;;3.40;1.63;;;;;;;5.35;100.00;96593.72;6745675;21;20325;-78
2024/04/16 00:11:23;;;;;;;1.73;1.58;;;;;;;5.31;100.00;96594.44;6746396;21;20362;-78
2024/04/16 00:13:51;;;;;;;1.90;1.70;;;;;;;5.35;100.00;96595.53;6743844;21;20326;-78
2024/04/16 00:16:17;;;;;;;4.05;1.80;;;;;;;5.47;100.00;96600.75;6743243;21;20323;-78
2024/04/16 00:18:45;;;;;;;3.13;1.65;;;;;;;5.57;100.00;96598.25;6745071;21;20370;-78
2024/04/16 00:21:11;;;;;;;4.25;1.85;;;;;;;5.57;100.00;96612.19;6745239;21;20326;-78
2024/04/16 00:23:38;;;;;;;4.35;1.60;;;;;;;5.56;100.00;96608.00;6744344;21;20330;-78
2024/04/16 00:26:05;;;;;;;3.08;1.77;;;;;;;5.52;100.00;96608.69;6743432;21;21604;-78
2024/04/16 00:28:31;;;;;;;4.53;1.63;;;;;;;5.56;100.00;96576.50;6746111;21;20330;-78
2024/04/16 00:31:00;;;;;;;4.00;1.73;;;;;;;5.54;100.00;96572.50;6746959;21;20322;-78
2024/04/16 00:33:26;;;;;;;5.43;1.70;;;;;;;5.44;100.00;96581.00;6747171;21;20795;-78
2024/04/16 00:35:52;;;;;;;5.20;2.00;;;;;;;5.39;100.00;96586.19;6747651;21;20463;-79
2024/04/16 00:38:18;;;;;;;4.88;1.80;;;;;;;5.27;100.00;96567.84;6746453;21;20331;-78
2024/04/16 00:40:45;;;;;;;2.30;1.60;;;;;;;5.30;100.00;96559.53;6745942;21;20840;-78
2024/04/16 00:43:17;;;;;;;5.53;1.95;;;;;;;5.33;100.00;96585.31;6745189;21;20362;-79
2024/04/16 00:45:48;;;;;;;3.58;1.95;;;;;;;5.22;100.00;96587.97;6745278;21;20352;-79
2024/04/16 00:48:19;;;;;;;3.35;1.80;;;;;;;5.12;100.00;96578.09;6750841;21;20421;-79
2024/04/16 00:50:46;;;;;;;4.85;1.92;;;;;;;5.28;100.00;96560.78;6755200;21;20403;-79
2024/04/16 00:53:13;;;;;;;4.47;1.90;;;;;;;5.34;100.00;96554.59;6754450;21;20807;-79
2024/04/16 00:55:40;;;;;;;6.30;1.92;;;;;;;5.39;100.00;96502.19;6751460;21;20322;-79
2024/04/16 00:58:08;;;;;;;7.10;2.00;;;;;;;5.47;100.00;96528.03;6753453;21;20334;-79
2024/04/16 01:00:34;;;;;;;4.65;1.70;;;;;;;5.42;100.00;96528.75;6752816;21;20779;-78
2024/04/16 01:03:00;;;;;;;4.97;1.85;;;;;;;5.49;100.00;96530.44;6753700;21;20437;-79
2024/04/16 01:05:29;;;;;;;5.50;2.20;;;;;;;5.53;100.00;96521.03;6754271;21;20330;-79
2024/04/16 01:07:55;;;;;;;5.67;2.10;;;;;;;5.33;100.00;96492.66;6751502;21;20324;-79
2024/04/16 01:10:21;;;;;;;3.40;2.00;;;;;;;5.43;100.00;96506.72;6751275;21;20659;-79
2024/04/16 01:12:47;;;;;;;4.80;1.80;;;;;;;5.42;100.00;96499.88;6751623;21;20338;-79
2024/04/16 01:15:14;;;;;;;6.47;2.10;;;;;;;5.52;100.00;96509.75;6753259;21;20373;-79
2024/04/16 01:17:41;;;;;;;3.97;2.40;;;;;;;5.48;100.00;96528.84;6755246;21;20316;-79
2024/04/16 01:20:08;;;;;;;12.60;2.30;;;;;;;5.42;100.00;96520.06;6761228;21;20326;-79
2024/04/16 01:22:37;;;;;;;2.50;2.30;;;;;;;5.48;100.00;96503.41;6759274;21;20346;-79
2024/04/16 01:25:06;;;;;;;4.68;1.90;;;;;;;5.40;100.00;96493.28;6758396;21;20323;-79
2024/04/16 01:27:32;;;;;;;5.60;2.00;;;;;;;5.37;100.00;96468.31;6762714;21;20454;-79
2024/04/16 01:29:58;;;;;;;5.22;1.92;;;;;;;5.38;100.00;96483.03;6753750;21;20326;-79
2024/04/16 01:32:25;;;;;;;5.73;1.90;;;;;;;5.43;100.00;96498.03;6754820;21;20537;-79
2024/04/16 01:34:51;;;;;;;5.75;2.40;;;;;;;5.53;100.00;96465.91;6754093;21;20354;-79
2024/04/16 01:37:17;;;;;;;3.60;1.90;;;;;;;5.47;100.00;96487.88;6752205;21;20421;-79
2024/04/16 01:39:43;;;;;;;4.78;2.42;;;;;;;5.50;100.00;96498.69;6749709;21;20318;-79
2024/04/16 01:42:12;;;;;;;4.70;2.05;;;;;;;5.39;100.00;96500.38;6752290;21;20326;-79
2024/04/16 01:44:38;;;;;;;3.53;1.90;;;;;;;5.39;100.00;96481.22;6751798;21;20363;-79
2024/04/16 01:47:04;;;;;;;6.53;2.47;;;;;;;5.30;100.00;96472.94;6751986;21;20338;-78
2024/04/16 01:49:30;;;;;;;5.65;1.90;;;;;;;5.35;100.00;96448.59;6750574;21;20334;-79
2024/04/16 01:51:57;;;;;;;9.70;2.40;;;;;;;5.49;100.00;96465.59;6749185;21;20326;-78
2024/04/16 01:54:23;;;;;;;4.70;1.85;;;;;;;5.36;100.00;96487.72;6752840;21;20355;-79
2024/04/16 01:56:50;;;;;;;8.80;2.58;;;;;;;5.16;100.00;96482.16;6752796;21;20326;-79
2024/04/16 01:59:19;;;;;;;7.15;2.20;;;;;;;5.19;100.00;96468.56;6751520;21;20318;-79
2024/04/16 02:01:46;;;;;;;3.78;2.03;;;;;;;5.12;100.00;96459.25;6745513;21;20357;-79
2024/04/16 02:04:12;;;;;;;4.68;2.30;;;;;;;5.21;100.00;96473.56;6745476;21;20710;-79
2024/04/16 02:06:38;;;;;;;2.80;1.97;;;;;;;5.25;100.00;96478.13;6747041;21;20704;-79
2024/04/16 02:09:04;;;;;;;7.68;2.63;;;;;;;5.20;100.00;96471.97;6749039;21;20744;-78
2024/04/16 02:11:30;;;;;;;3.45;1.83;;;;;;;5.27;100.00;96462.91;6747501;21;20440;-78
2024/04/16 02:13:56;;;;;;;6.03;2.00;;;;;;;5.25;100.00;96466.81;6746497;21;20326;-78
2024/04/16 02:16:25;;;;;;;4.68;2.05;;;;;;;5.28;100.00;96448.75;6746113;21;20351;-77
2024/04/16 02:18:51;;;;;;;5.18;2.03;;;;;;;5.27;100.00;96459.50;6741693;21;20323;-77
2024/04/16 02:21:17;;;;;;;4.25;2.17;;;;;;;5.21;100.00;96456.00;6742232;21;20409;-78
2024/04/16 02:23:46;;;;;;;4.18;1.90;;;;;;;5.14;100.00;96438.84;6743151;21;20429;-79
2024/04/16 02:26:12;;;;;;;6.22;2.40;;;;;;;5.16;100.00;96437.56;6742165;21;20326;-79
2024/04/16 02:28:38;;;;;;;6.30;2.50;;;;;;;5.28;100.00;96450.59;6742600;21;20322;-79
2024/04/16 02:31:04;;;;;;;7.25;2.50;;;;;;;5.32;100.00;96449.09;6741767;21;20322;-79
2024/04/16 02:33:33;;;;;;;8.40;2.30;;;;;;;5.33;100.00;96454.09;6744112;21;20323;-79
2024/04/16 02:36:00;;;;;;;7.20;2.40;;;;;;;5.31;100.00;96456.16;6746332;21;20357;-79
2024/04/16 02:38:26;;;;;;;3.47;2.05;;;;;;;5.30;100.00;96457.19;6743166;21;20351;-80
2024/04/16 02:40:52;;;;;;;5.97;2.42;;;;;;;5.23;100.00;96459.19;6744416;21;20351;-80
2024/04/16 02:43:18;;;;;;;2.67;1.80;;;;;;;5.23;100.00;96466.25;6744570;21;20776;-79
2024/04/16 02:45:45;;;;;;;5.65;2.17;;;;;;;5.31;100.00;96474.53;6743872;21;20909;-79
2024/04/16 02:48:11;;;;;;;7.20;2.50;;;;;;;5.44;100.00;96487.31;6744889;21;20318;-78
2024/04/16 02:50:40;;;;;;;5.45;2.20;;;;;;;5.32;100.00;96478.75;6745517;21;20330;-79
2024/04/16 02:53:06;;;;;;;7.72;2.50;;;;;;;5.32;100.00;96485.81;6743738;21;20330;-79
2024/04/16 02:55:33;;;;;;;5.57;2.28;;;;;;;5.21;100.00;96492.72;6742785;21;20373;-78
2024/04/16 02:58:00;;;;;;;3.25;1.92;;;;;;;5.18;100.00;96495.06;6741027;21;20358;-78
2024/04/16 03:00:26;;;;;;;8.60;2.60;;;;;;;5.14;100.00;96496.53;6739520;21;20330;-78
2024/04/16 03:02:52;;;;;;;7.90;2.40;;;;;;;5.10;100.00;96493.63;6739396;21;20417;-78
2024/04/16 03:05:18;;;;;;;8.40;2.95;;;;;;;5.02;100.00;96494.00;6740342;21;20327;-79
2024/04/16 03:07:49;;;;;;;5.93;2.47;;;;;;;4.87;100.00;96494.56;6741662;21;20330;-78
2024/04/16 03:10:16;;;;;;;9.13;2.83;;;;;;;4.76;100.00;96481.47;6742131;21;20408;-78
2024/04/16 03:12:43;;;;;;;7.15;2.33;;;;;;;4.62;100.00;96487.03;6742116;21;20330;-78
2024/04/16 03:15:09;;;;;;;6.05;2.50;;;;;;;4.55;100.00;96507.34;6741407;21;20413;-78
2024/04/16 03:17:35;;;;;;;12.05;3.20;;;;;;;4.60;100.00;96499.56;6742061;21;20334;-78
2024/04/16 03:20:02;;;;;;;5.40;2.70;;;;;;;4.43;100.00;96490.09;6741706;21;20417;-79
2024/04/16 03:22:28;;;;;;;9.02;3.00;;;;;;;4.33;100.00;96480.19;6742671;21;20366;-79
2024/04/16 03:24:57;;;;;;;4.85;2.60;;;;;;;4.24;100.00;96492.88;6742790;21;20675;-79
2024/04/16 03:27:23;;;;;;;8.50;2.88;;;;;;;4.15;100.00;96488.22;6743199;21;20326;-79
2024/04/16 03:29:50;;;;;;;8.65;2.88;;;;;;;4.16;100.00;96492.44;6741994;21;20318;-78
2024/04/16 03:32:16;;;;;;;6.10;3.00;;;;;;;4.12;100.00;96496.56;6740893;21;20416;-78
2024/04/16 03:34:42;;;;;;;6.65;2.65;;;;;;;4.07;100.00;96489.38;6740980;21;20334;-78
2024/04/16 03:37:09;;;;;;;11.27;3.03;;;;;;;4.01;100.00;96487.69;6741047;21;20332;-78
2024/04/16 03:39:35;;;;;;;13.05;3.30;;;;;;;3.99;100.00;96491.56;6741823;21;20363;-78
2024/04/16 03:42:04;;;;;;;7.68;3.05;;;;;;;3.94;100.00;96496.69;6742382;21;20330;-78
2024/04/16 03:44:30;;;;;;;10.57;3.05;;;;;;;3.94;100.00;96500.13;6742068;21;20366;-79
2024/04/16 03:46:57;;;;;;;7.25;2.83;;;;;;;3.92;100.00;96504.78;6743698;21;20717;-79
2024/04/16 03:49:23;;;;;;;6.60;3.00;;;;;;;3.91;100.00;96502.41;6741568;21;20331;-78
2024/04/16 03:51:49;;;;;;;12.65;3.00;;;;;;;3.91;100.00;96499.78;6742433;21;20759;-80
2024/04/16 03:54:15;;;;;;;12.63;3.37;;;;;;;3.90;100.00;96504.22;6740203;21;20323;-79
2024/04/16 03:56:42;;;;;;;8.23;3.00;;;;;;;3.86;100.00;96503.88;6743106;21;20330;-82
2024/04/16 04:01:55;;;;;;;12.45;4.18;;;;;;;3.84;100.00;96503.31;6740268;21;20422;-77
2024/04/16 04:04:22;;;;;;;6.63;2.95;;;;;;;3.90;100.00;96506.84;6739522;21;20322;-77
2024/04/16 04:06:48;;;;;;;9.43;2.97;;;;;;;3.79;100.00;96508.44;6739178;21;20362;-77
2024/04/16 04:09:14;;;;;;;9.95;3.13;;;;;;;3.73;100.00;96501.50;6739362;21;20332;-77
2024/04/16 04:11:40;;;;;;;12.20;3.25;;;;;;;3.73;100.00;96505.94;6739686;21;20330;-77
2024/04/16 04:14:06;;;;;;;10.68;3.55;;;;;;;3.72;100.00;96510.38;6737855;21;20327;-77
2024/04/16 04:16:35;;;;;;;11.75;3.50;;;;;;;3.71;100.00;96508.00;6739460;21;20363;-78
2024/04/16 04:19:02;;;;;;;6.15;2.83;;;;;;;3.75;100.00;96509.13;6741950;21;20369;-86
2024/04/16 04:21:28;;;;;;;10.10;2.75;;;;;;;3.78;100.00;96506.84;6744041;21;20322;-86
2024/04/16 04:23:54;;;;;;;5.85;2.60;;;;;;;3.75;100.00;96509.94;6742266;21;20326;-78
2024/04/16 04:26:21;;;;;;;9.85;3.30;;;;;;;3.71;100.00;96506.16;6743359;21;20367;-80
2024/04/16 04:28:47;;;;;;;9.82;3.85;;;;;;;3.78;100.00;96514.69;6743193;21;20374;-78
2024/04/16 04:31:14;;;;;;;10.10;3.05;;;;;;;3.73;100.00;96504.13;6741846;21;20386;-79
2024/04/16 04:33:43;;;;;;;10.13;2.55;;;;;;;3.64;100.00;96500.25;6739641;21;20327;-78
2024/04/16 04:36:13;;;;;;;6.20;2.95;;;;;;;3.57;100.00;96502.19;6743238;21;20338;-78
2024/04/16 04:38:39;;;;;;;8.63;2.88;;;;;;;3.61;100.00;96503.31;6746014;21;20879;-79
2024/04/16 04:41:08;;;;;;;7.82;2.80;;;;;;;3.61;100.00;96507.78;6696695;21;20323;-78
2024/04/16 04:43:34;;;;;;;5.38;2.70;;;;;;;3.60;100.00;96514.84;6736698;21;20709;-77
2024/04/16 04:46:00;;;;;;;6.03;2.80;;;;;;;3.54;100.00;96507.06;6738892;21;20802;-78
2024/04/16 04:48:27;;;;;;;6.03;2.65;;;;;;;3.47;100.00;96513.22;6739950;21;20643;-78
2024/04/16 04:50:56;;;;;;;9.52;3.30;;;;;;;3.55;100.00;96522.56;6739549;21;20354;-78
2024/04/16 04:53:22;;;;;;;11.68;3.47;;;;;;;3.53;100.00;96518.59;6740469;21;20861;-78
2024/04/16 04:55:48;;;;;;;6.85;2.90;;;;;;;3.44;100.00;96518.13;6743228;21;20362;-78
2024/04/16 04:58:14;;;;;;;6.90;2.65;;;;;;;3.49;100.00;96518.25;6747157;21;20323;-77
2024/04/16 05:00:40;;;;;;;6.97;2.78;;;;;;;3.50;100.00;96523.25;6745124;21;20327;-78
2024/04/16 05:03:07;;;;;;;7.00;2.60;;;;;;;3.57;100.00;96527.56;6740724;21;20431;-75
2024/04/16 05:05:33;;;;;;;7.78;2.80;;;;;;;3.64;100.00;96530.88;6742637;21;20353;-78
2024/04/16 05:08:02;;;;;;;4.20;2.50;;;;;;;3.68;100.00;96534.63;6743149;21;20356;-77
2024/04/16 05:10:28;;;;;;;5.20;2.83;;;;;;;3.72;100.00;96531.31;6740361;21;20350;-78
2024/04/16 05:12:54;;;;;;;4.85;2.58;;;;;;;3.80;100.00;96533.59;6738152;21;20421;-77
2024/04/16 05:15:20;;;;;;;6.10;2.95;;;;;;;3.95;100.00;96542.81;6739806;21;20346;-77
2024/04/16 05:17:47;;;;;;;7.72;3.47;;;;;;;4.07;100.00;96546.19;6736343;21;20331;-78
2024/04/16 05:20:13;;;;;;;4.47;2.75;;;;;;;4.13;100.00;96556.56;6738158;21;20877;-77
2024/04/16 05:22:39;;;;;;;9.25;3.20;;;;;;;4.21;100.00;96550.94;6737932;21;20351;-77
2024/04/16 05:25:08;;;;;;;9.82;2.90;;;;;;;4.27;100.00;96554.50;6738481;21;20354;-76
2024/04/16 05:27:35;;;;;;;11.05;2.92;;;;;;;4.29;100.00;96544.56;6739177;21;20375;-76
2024/04/16 05:30:01;;;;;;;5.10;2.60;;;;;;;4.38;100.00;96558.09;6739033;21;20812;-77
2024/04/16 05:32:27;;;;;;;13.00;3.47;;;;;;;4.53;100.00;96561.81;6739448;21;20787;-76
2024/04/16 05:34:53;;;;;;;4.50;2.80;;;;;;;4.55;100.00;96554.50;6741536;21;20315;-76
2024/04/16 05:37:19;;;;;;;6.90;2.75;;;;;;;4.55;100.00;96554.50;6741770;21;20412;-77
2024/04/16 05:39:45;;;;;;;7.13;3.13;;;;;;;4.67;100.00;96551.84;6742526;21;20322;-77
2024/04/16 05:42:14;;;;;;;10.30;3.40;;;;;;;4.61;100.00;96552.78;6741077;21;20326;-77
2024/04/16 05:44:40;;;;;;;9.93;3.42;;;;;;;4.59;100.00;96552.22;6740508;21;20784;-77
2024/04/16 05:47:06;;;;;;;4.38;2.70;;;;;;;4.66;100.00;96563.38;6740794;21;20334;-76
2024/04/16 05:49:33;;;;;;;4.37;2.80;;;;;;;4.67;100.00;96563.13;6740964;21;20783;-77
2024/04/16 05:52:00;;;;;;;13.55;3.72;;;;;;;4.71;100.00;96567.91;6741211;21;20338;-77
2024/04/16 05:54:29;;;;;;;8.25;2.70;;;;;;;4.79;100.00;96562.31;6741232;21;20350;-77
2024/04/16 05:56:56;;;;;;;7.60;2.67;;;;;;;4.90;100.00;96569.31;6740124;21;20326;-77
2024/04/16 05:59:24;;;;;;;5.78;2.60;;;;;;;5.10;100.00;96571.50;6740946;21;20335;-77
2024/04/16 06:01:51;;;;;;;6.37;2.40;;;;;;;5.22;100.00;96569.59;6740345;21;20420;-77
2024/04/16 06:04:17;;;;;;;4.25;2.20;;;;;;;5.33;100.00;96577.44;6739899;21;20331;-77
2024/04/16 06:06:43;;;;;;;2.80;1.80;;;;;;;5.47;100.00;96571.88;6740335;21;20401;-76
2024/04/16 06:09:09;;;;;;;4.53;2.00;;;;;;;5.55;100.00;96567.03;6740840;21;20716;-77
2024/04/16 06:11:35;;;;;;;10.57;2.60;;;;;;;5.62;100.00;96572.91;6741769;21;20363;-77
2024/04/16 06:14:01;;;;;;;10.27;2.85;;;;;;;5.52;100.00;96574.56;6741537;21;20647;-77
2024/04/16 06:16:30;;;;;;;10.98;2.95;;;;;;;5.69;100.00;96564.88;6744216;21;20435;-77
2024/04/16 06:18:56;;;;;;;11.73;2.67;;;;;;;5.63;100.00;96564.00;6749035;21;20451;-77
2024/04/16 06:21:23;;;;;;;15.15;2.58;;;;;;;5.61;100.00;96562.63;6748461;21;20323;-77
2024/04/16 06:23:50;;;;;;;9.63;2.75;;;;;;;5.56;100.00;96562.56;6748822;21;20326;-77
2024/04/16 06:26:16;;;;;;;11.30;3.10;;;;;;;5.75;100.00;96559.44;6743097;21;20373;-78
2024/04/16 06:28:42;;;;;;;6.32;2.30;;;;;;;5.65;100.00;96554.03;6741338;21;20338;-78
2024/04/16 06:31:08;;;;;;;12.32;2.72;;;;;;;5.64;100.00;96549.81;6693797;21;20374;-77
2024/04/16 06:33:37;;;;;;;10.35;2.47;;;;;;;5.65;100.00;96555.84;6739972;21;20629;-78
2024/04/16 06:36:04;;;;;;;4.63;2.33;;;;;;;5.75;100.00;96546.31;6740183;21;20408;-77
2024/04/16 06:38:31;;;;;;;6.20;2.40;;;;;;;5.83;100.00;96538.03;6740526;21;20338;-77
2024/04/16 06:40:59;;;;;;;10.77;2.60;;;;;;;5.84;100.00;96539.63;6740370;21;20684;-78
2024/04/16 06:43:25;;;;;;;13.10;2.50;;;;;;;5.93;100.00;96532.16;6741051;21;20406;-78
2024/04/16 06:45:52;;;;;;;5.20;2.13;;;;;;;5.96;100.00;96536.13;6740249;21;20826;-78
2024/04/16 06:48:18;;;;;;;4.15;2.08;;;;;;;5.99;100.00;96531.19;6740049;21;20323;-78
2024/04/16 06:50:50;;;;;;;10.38;2.88;;;;;;;6.11;100.00;96545.00;6739781;21;20330;-79
2024/04/16 06:53:17;;;;;;;12.50;2.60;;;;;;;6.05;100.00;96535.47;6739352;21;20337;-77
2024/04/16 06:55:43;;;;;;;6.90;2.35;;;;;;;6.06;100.00;96528.38;6740864;21;20772;-78
2024/04/16 06:58:10;;;;;;;10.43;2.30;;;;;;;6.13;100.00;96539.50;6742620;21;20330;-79
2024/04/16 07:00:37;;;;;;;12.18;2.72;;;;;;;6.24;100.00;96543.06;6742254;21;20635;-79
2024/04/16 07:03:03;;;;;;;6.55;2.40;;;;;;;6.27;100.00;96535.47;6743060;21;20680;-79
2024/04/16 07:05:29;;;;;;;11.07;2.80;;;;;;;6.36;100.00;96528.75;6742271;21;20359;-78
2024/04/16 07:07:58;;;;;;;13.48;2.30;;;;;;;6.57;100.00;96525.31;6742183;21;20322;-79
2024/04/16 07:10:24;;;;;;;9.27;2.78;;;;;;;6.63;100.00;96530.63;6742650;21;20696;-77
2024/04/16 07:12:50;;;;;;;4.78;1.90;;;;;;;6.59;100.00;96530.34;6740940;21;20779;-79
2024/04/16 07:15:16;;;;;;;12.05;2.47;;;;;;;6.48;100.00;96526.00;6743107;21;20334;-80
2024/04/16 07:17:43;;;;;;;9.88;2.60;;;;;;;6.52;100.00;96524.47;6744759;21;20314;-78
2024/04/16 07:20:09;;;;;;;8.13;2.42;;;;;;;6.49;100.00;96530.22;6742464;21;20394;-82
2024/04/16 07:22:35;;;;;;;10.18;2.45;;;;;;;6.40;100.00;96527.22;6742926;21;20311;-78
2024/04/16 07:25:05;;;;;;;5.50;2.40;;;;;;;6.59;100.00;96533.75;6743430;21;20318;-79
2024/04/16 07:27:31;;;;;;;8.97;2.60;;;;;;;6.54;100.00;96517.16;6741524;21;20401;-79
2024/04/16 07:29:57;;;;;;;10.10;2.30;;;;;;;6.36;100.00;96506.94;6743357;21;20326;-79
2024/04/16 07:32:23;;;;;;;11.00;2.70;;;;;;;6.47;100.00;96517.31;6743396;21;20326;-79
2024/04/16 07:34:49;;;;;;;8.00;2.10;;;;;;;6.66;100.00;96511.72;6744570;21;20371;-79
2024/04/16 07:37:16;;;;;;;8.87;2.30;;;;;;;6.66;100.00;96514.38;6742958;21;20327;-79
2024/04/16 07:39:45;;;;;;;11.18;2.50;;;;;;;6.92;100.00;96526.72;6743185;21;20355;-80
2024/04/16 07:42:14;;;;;;;11.83;3.40;;;;;;;6.88;100.00;96515.91;6743585;21;20372;-79
2024/04/16 07:44:41;;;;;;;10.32;2.28;;;;;;;6.88;100.00;96521.16;6742814;21;20330;-78
2024/04/16 07:47:08;;;;;;;6.95;1.98;;;;;;;6.92;100.00;96506.47;6743231;21;20338;-80
2024/04/16 07:49:34;;;;;;;11.05;2.80;;;;;;;7.14;100.00;96501.13;6743172;21;20363;-79
2024/04/16 07:52:00;;;;;;;7.72;1.77;;;;;;;7.09;100.00;96484.50;6742538;21;20323;-79
2024/04/16 07:54:26;;;;;;;5.68;2.10;;;;;;;7.50;100.00;96485.63;6745084;21;20334;-79
2024/04/16 07:56:53;;;;;;;7.57;2.13;;;;;;;7.41;100.00;96501.09;6743832;21;20315;-80
2024/04/16 07:59:22;;;;;;;12.32;2.20;;;;;;;7.48;100.00;96483.25;6743582;21;20386;-79
2024/04/16 08:01:48;;;;;;;8.68;2.08;;;;;;;7.41;100.00;96476.59;6744617;21;20424;-79
2024/04/16 08:04:14;;;;;;;10.05;2.25;;;;;;;7.81;100.00;96500.59;6744205;21;20370;-78
2024/04/16 08:06:40;;;;;;;8.38;2.30;;;;;;;7.67;100.00;96486.25;6742568;21;20390;-79
2024/04/16 08:09:06;;;;;;;9.18;2.08;;;;;;;7.57;100.00;96478.31;6742746;21;20787;-79
2024/04/16 08:11:33;;;;;;;7.22;1.92;;;;;;;7.36;100.00;96493.97;6742713;21;20640;-79
2024/04/16 08:13:59;;;;;;;4.30;2.17;;;;;;;7.56;100.00;96472.25;6743363;21;20800;-79
2024/04/16 08:16:29;;;;;;;5.78;1.80;;;;;;;7.53;100.00;96477.22;6745254;21;20342;-78
2024/04/16 08:18:55;;;;;;;6.80;1.77;;;;;;;7.59;100.00;96478.84;6757525;21;20350;-79
2024/04/16 08:21:22;;;;;;;7.20;2.00;;;;;;;7.83;100.00;96461.59;6754206;21;20330;-79
2024/04/16 08:23:51;;;;;;;10.73;1.95;;;;;;;7.69;100.00;96471.78;6743710;21;20322;-78
2024/04/16 08:26:18;;;;;;;10.70;2.53;;;;;;;7.68;100.00;96479.94;6753095;21;20348;-82
2024/04/16 08:28:44;;;;;;;7.80;1.80;;;;;;;7.61;100.00;96471.47;6752922;21;20334;-82
2024/04/16 08:31:10;;;;;;;8.57;2.13;;;;;;;7.80;100.00;96485.81;6748172;21;20326;-81
2024/04/16 08:33:39;;;;;;;5.97;1.92;;;;;;;8.03;100.00;96455.63;6747166;21;20375;-82
2024/04/16 08:36:06;;;;;;;6.00;1.50;;;;;;;8.14;100.00;96452.78;6742597;21;20318;-80
2024/04/16 08:38:32;;;;;;;6.32;1.90;;;;;;;8.44;100.00;96491.66;6743071;21;20429;-78
2024/04/16 08:41:02;;;;;;;5.60;1.70;;;;;;;8.57;100.00;96479.81;6741506;21;20331;-80
2024/04/16 08:43:33;;;;;;;5.97;1.60;;;;;;;8.62;100.00;96444.78;6743259;21;20402;-81
2024/04/16 08:46:00;;;;;;;7.75;1.80;;;;;;;8.62;100.00;96461.38;6742847;21;20729;-79
2024/04/16 08:48:28;;;;;;;7.28;1.70;;;;;;;8.58;100.00;96431.28;6742545;21;20429;-79
2024/04/16 08:50:57;;;;;;;4.30;1.65;;;;;;;8.72;100.00;96444.78;6741839;21;20366;-81
2024/04/16 08:53:25;;;;;;;7.20;2.00;;;;;;;8.90;100.00;96454.81;6743182;21;20330;-77
2024/04/16 08:55:51;;;;;;;7.32;1.70;;;;;;;9.15;100.00;96452.22;6741152;21;20371;-79
2024/04/16 08:58:17;;;;;;;6.97;1.70;;;;;;;9.00;100.00;96439.00;6741324;21;20326;-79
2024/04/16 09:00:44;;;;;;;6.68;2.22;;;;;;;9.13;100.00;96440.31;6742113;21;20775;-79
2024/04/16 09:03:10;;;;;;;4.53;1.65;;;;;;;9.20;100.00;96425.00;6740319;21;20331;-80
2024/04/16 09:05:36;;;;;;;9.48;1.88;;;;;;;9.49;100.00;96422.59;6740857;21;20673;-79
2024/04/16 09:08:06;;;;;;;6.27;1.60;;;;;;;9.68;100.00;96432.34;6743342;21;20358;-77
2024/04/16 09:10:32;;;;;;;5.72;1.40;;;;;;;9.96;100.00;96425.63;6742980;21;20330;-78
2024/04/16 09:13:09;;;;;;;7.10;1.63;;;;;;;10.44;100.00;96441.84;6743725;21;20809;-79
2024/04/16 09:15:37;;;;;;;5.72;1.40;;;;;;;10.75;100.00;96442.47;6744769;21;20322;-79
2024/04/16 09:18:04;;;;;;;8.20;1.87;;;;;;;10.99;100.00;96450.50;6743446;21;21073;-78
2024/04/16 09:20:30;;;;;;;4.38;1.25;;;;;;;10.74;100.00;96428.44;6743769;21;20334;-80
2024/04/16 09:22:57;;;;;;;3.65;1.58;;;;;;;10.65;100.00;96443.31;6745226;21;20397;-79
2024/04/16 09:25:26;;;;;;;4.13;1.50;;;;;;;10.42;100.00;96446.63;6746128;21;20427;-82
2024/04/16 09:27:54;;;;;;;5.88;1.33;;;;;;;10.55;100.00;96459.25;6745843;21;20335;-80
2024/04/16 09:30:21;;;;;;;4.50;1.50;;;;;;;11.09;100.00;96443.28;6749428;21;20429;-81
2024/04/16 09:32:57;;;;;;;3.90;1.13;;;;;;;11.40;100.00;96443.81;6745489;21;20350;-79
2024/04/16 09:35:25;;;;;;;6.90;1.70;;;;;;;11.31;100.00;96434.88;6745386;21;20803;-79
2024/04/16 09:37:59;;;;;;;7.50;1.75;;;;;;;11.26;100.00;96442.88;6744233;21;20359;-79
2024/04/16 09:40:29;;;;;;;2.42;1.73;;;;;;;10.79;100.00;96433.69;6744903;21;20394;-79
2024/04/16 09:42:56;;;;;;;5.70;1.70;;;;;;;10.44;100.00;96433.91;6745402;21;20326;-79
2024/04/16 09:45:22;;;;;;;3.42;1.33;;;;;;;10.46;100.00;96431.78;6743649;21;20688;-78
2024/04/16 09:47:49;;;;;;;4.45;1.50;;;;;;;10.34;100.00;96436.59;6740996;21;20743;-78
2024/04/16 09:50:19;;;;;;;5.75;1.60;;;;;;;10.32;100.00;96425.50;6740076;21;20671;-79
2024/04/16 09:52:46;;;;;;;2.90;1.70;;;;;;;10.20;100.00;96427.69;6740158;21;20389;-79
2024/04/16 09:55:16;;;;;;;2.95;1.40;;;;;;;10.12;100.00;96430.84;6739870;21;20327;-79
2024/04/16 09:57:46;;;;;;;4.63;1.30;;;;;;;9.90;100.00;96444.44;6739766;21;20326;-77
2024/04/16 10:00:13;;;;;;;8.20;1.52;;;;;;;9.98;100.00;96428.00;6741251;21;20330;-77
2024/04/16 10:02:42;;;;;;;2.30;1.30;;;;;;;9.99;100.00;96430.38;6739945;21;20322;-78
2024/04/16 10:05:11;;;;;;;2.53;1.42;;;;;;;10.17;100.00;96401.75;6738647;21;20819;-78
2024/04/16 10:07:37;;;;;;;4.38;1.27;;;;;;;10.14;100.00;96418.97;6739325;21;20358;-79
2024/04/16 10:10:05;;;;;;;5.97;1.38;;;;;;;10.20;100.00;96425.84;6739879;21;20357;-78
2024/04/16 10:12:32;;;;;;;6.72;1.40;;;;;;;10.17;100.00;96414.97;6739467;21;20843;-77
2024/04/16 10:15:01;;;;;;;5.90;1.30;;;;;;;10.24;100.00;96428.72;6739600;21;20362;-78
2024/04/16 10:17:29;;;;;;;3.70;1.25;;;;;;;10.25;100.00;96425.00;6740175;21;20358;-78
2024/04/16 10:19:55;;;;;;;4.15;1.23;;;;;;;10.10;100.00;96437.22;6739224;21;20323;-78
2024/04/16 10:22:21;;;;;;;4.40;1.20;;;;;;;10.04;100.00;96425.06;6741540;21;20367;-79
2024/04/16 10:24:54;;;;;;;5.32;1.20;;;;;;;9.86;100.00;96430.16;6741979;21;20322;-79
2024/04/16 10:27:21;;;;;;;4.47;1.20;;;;;;;9.80;100.00;96426.75;6744198;21;20411;-78
2024/04/16 10:29:48;;;;;;;2.80;1.20;;;;;;;9.85;100.00;96434.63;6740005;21;20367;-77
2024/04/16 10:32:20;;;;;;;3.78;2.10;;;;;;;9.91;100.00;96427.50;6739452;21;20359;-77
2024/04/16 10:34:47;;;;;;;6.13;1.23;;;;;;;9.83;100.00;96438.63;6739409;21;20635;-78
2024/04/16 10:37:19;;;;;;;2.53;1.20;;;;;;;9.58;100.00;96420.97;6742087;21;20637;-78
2024/04/16 10:39:55;;;;;;;4.78;1.27;;;;;;;9.48;100.00;96419.16;6750794;21;20780;-79
2024/04/16 10:42:27;;;;;;;4.50;1.75;;;;;;;9.64;100.00;96411.97;6746052;21;20331;-80
2024/04/16 10:44:54;;;;;;;3.00;1.20;;;;;;;9.68;100.00;96416.47;6704162;21;20931;-78
2024/04/16 10:47:24;;;;;;;3.33;1.40;;;;;;;10.25;100.00;96409.13;6747196;21;20425;-78
2024/04/16 10:49:52;;;;;;;1.65;1.10;;;;;;;10.56;100.00;96399.97;6750824;21;20311;-80
2024/04/16 10:52:20;;;;;;;3.88;1.10;;;;;;;11.23;100.00;96378.00;6751284;21;20330;-79
2024/04/16 10:54:52;;;;;;;1.63;1.02;;;;;;;11.48;100.00;96384.13;6748250;21;20350;-79
2024/04/16 10:57:18;;;;;;;3.00;1.20;;;;;;;11.48;100.00;96394.72;6748959;21;20330;-79
2024/04/16 10:59:45;;;;;;;2.38;1.00;;;;;;;11.47;100.00;96388.63;6741874;21;20318;-77
2024/04/16 11:02:11;;;;;;;3.50;1.20;;;;;;;11.64;100.00;96377.59;6742197;21;20504;-79
2024/04/16 11:04:40;;;;;;;3.88;1.20;;;;;;;11.58;100.00;96384.00;6746759;21;20753;-79
2024/04/16 11:07:06;;;;;;;4.93;1.63;;;;;;;11.66;100.00;96383.38;6745710;21;20787;-80
2024/04/16 11:09:32;;;;;;;2.13;1.10;;;;;;;11.60;100.00;96398.56;6744173;21;20355;-79
2024/04/16 11:11:59;;;;;;;2.92;1.40;;;;;;;11.59;100.00;96407.56;6744962;21;20682;-78
2024/04/16 11:14:26;;;;;;;4.50;1.23;;;;;;;11.50;100.00;96400.53;6744282;21;20418;-79
2024/04/16 11:16:52;;;;;;;3.45;1.17;;;;;;;11.38;100.00;96397.44;6745997;21;20334;-79
2024/04/16 11:19:19;;;;;;;3.78;1.00;;;;;;;11.25;100.00;96434.13;6746705;21;20362;-80
2024/04/16 11:21:48;;;;;;;1.30;0.90;;;;;;;11.20;100.00;96433.41;6749742;21;20601;-79
2024/04/16 11:24:14;;;;;;;3.47;1.02;;;;;;;11.24;100.00;96423.81;6744409;21;20322;-79
2024/04/16 11:26:40;;;;;;;1.48;0.82;;;;;;;11.63;100.00;96394.56;6747907;21;20390;-78
2024/04/16 11:29:07;;;;;;;1.65;0.98;;;;;;;12.11;100.00;96411.25;6745775;21;20327;-79
2024/04/16 11:31:33;;;;;;;1.65;0.93;;;;;;;12.60;100.00;96410.88;6746736;21;20482;-79
2024/04/16 11:33:59;;;;;;;3.42;1.10;;;;;;;12.97;100.00;96419.91;6747695;21;20497;-78